Delta Virtual Airport Information Service

Portland International Jetport

ICAO: KPWM Country: United States
Latitude: 43.6462 Longitude: -70.3092
Latest Arrival : SWA1037 (C) (KBWI-KPWM) Latest Departure : AAL591 (B) (KPWM-KCLT)


WX CaptureLIVE
Data provided by noaa.gov | Fetched at 02:12:47

METAR : KPWM 270751Z AUTO 36005KT 7SM BKN010 OVC015 M02/M03 A2993 RMK AO2 SNE43 SLP135 P0000 T10221033

TAF : KPWM 270527Z 2706/2806 02006KT 2SM -SN OVC025 FM270900 02007KT 2SM -SN OVC007 FM271400 01007KT P6SM BKN015


Runway Data for KPWM
Data provided by openaviationdata.com

Runway ID Mag Var Hdg Length Elevation Surface ILS Freq ILS Id ILS Slope
11 -17 112° 7188 ft 36 ft Asphalt 109.9 IPWM 3
18 -17 180° 5000 ft 36 ft Asphalt -- -- --
29 -17 292° 7188 ft 36 ft Asphalt 109.9 IGCS 3
36 -17 5000 ft 36 ft Asphalt -- -- --

Portland International Jetport, United States
Use only for reference purposes



Not for navigational purposes.